Upper Mifflin, Pennsylvania
Current Conditions -  °F | °C
As of 9:14 PM on Monday 22 Dec 2014 (Local Time) from KCXY Reporting Station
Light Rain Light Rain  
Wind Chill: 30°   Ceiling: 300
Heat Index: 34°   Visibility: 2mi
Dew Point: 32°   Wind: 5mph
Humidity: 92%   Direction: 260°W
Pressure: 30.17"   Gusts: NA
Location:  40.183°N, 77.4166°W
Report Text: KCXY 230214Z AUTO 26004KT 2SM -RA BR BKN003 OVC019 01/00 A3017 RMK AO2 RAB11 CIG 003V008 P0000 T00110000
Loading
Personal Weather Stations






























Interactive Weather Map New forecast layout! Learn more

10-Day Weather Forecast

Advertisements
Track Severe Weather on mobile